Roi Et Airport
VTUV : now visible

Airfield :











YOU CAN JOIN US ON...

 
LOGIN :

Register | Disclaimer

   EN    FR    IT 

 









Legend :    VFR   Marginal VFR   IFR   Intensive IFR   Very Intensive IFR
Visi :
Ceiling :
>= 8 km
>= 3000ft
5 to 8 km
1000 to 3000 ft
1500m to 5 km
500 to 1000 ft
800 to 1500m
200 to 500 ft
< 800m
< 200 ft
Symbols :   Thunderstorms  Fog  Heavy snow  Heavy precipitations  Wind > 20 kt






- Airport Elevation : 451 ft
- IATA code : ROI


VTUV - Roi Et

CURRENT METAR :
  • 230200Z 16005KT 120V210 6000 NSC 26/20 Q1015 NOSIG

EXPIRED METARs :
  • 230100Z VRB02KT 5000 BR NSC 24/20 Q1014 NOSIG
  • 230000Z 00000KT 5000 BR NSC 21/19 Q1013 NOSIG

TAF TAF VTUV
Valid from the 23 at 00:00 until the 24 at 00:00 UTC


222300Z 2300/2324 17005KT 5000 BR NSC
BECMG 2301/2303 8000 NSW



MET'MAP, your aeronautical weather chart ! - Copyright ORBIFLY December 2007 - Disclaimer

ORBIFLY MET'MAP TEAM :

Programming & Development : Alexandra Zaïnal
Concept & original design : Baudouin d'Aumeries
Assistance for programming : Marc-Olivier Méhu
Technical & hardware support : Manuel Goepfert

Contact : metmap@orbifly.com




SOURCES & CREDITS :

   NOAA       Earth
Advisory